createdAt,value
2019-03-30T00:01:12.417Z,60.63
2019-03-30T00:03:41.138Z,64.03
2019-03-30T00:06:09.925Z,59.08
2019-03-30T00:08:38.373Z,57.80
2019-03-30T00:11:06.802Z,56.33
2019-03-30T00:13:35.240Z,59.10
2019-03-30T00:16:03.750Z,54.55
2019-03-30T00:18:32.198Z,55.20
2019-03-30T00:21:00.647Z,56.75
2019-03-30T00:23:29.085Z,52.30
2019-03-30T00:25:57.532Z,52.27
2019-03-30T00:28:25.973Z,52.03
2019-03-30T00:30:54.412Z,52.20
2019-03-30T00:33:22.848Z,50.10
2019-03-30T00:35:51.290Z,50.67
2019-03-30T00:38:19.746Z,49.15
2019-03-30T00:40:48.188Z,53.80
2019-03-30T00:43:16.625Z,48.68
2019-03-30T00:45:45.064Z,48.83
2019-03-30T00:48:13.502Z,50.25
2019-03-30T00:50:43.113Z,42.93
2019-03-30T00:53:11.550Z,48.23
2019-03-30T00:55:39.993Z,52.95
2019-03-30T00:58:08.431Z,47.43
2019-03-30T01:00:36.866Z,44.77
2019-03-30T01:03:05.444Z,48.28
2019-03-30T01:05:33.876Z,48.42
2019-03-30T01:08:02.321Z,49.42
2019-03-30T01:10:30.997Z,46.23
2019-03-30T01:12:59.800Z,44.60
2019-03-30T01:15:28.242Z,41.58
2019-03-30T01:17:56.680Z,42.00
2019-03-30T01:20:25.100Z,41.08
2019-03-30T01:22:55.140Z,41.92
2019-03-30T01:25:23.577Z,43.02
2019-03-30T01:27:52.025Z,48.73
2019-03-30T01:30:23.301Z,42.83
2019-03-30T01:32:50.596Z,42.67
2019-03-30T01:35:19.165Z,37.25
2019-03-30T01:37:47.945Z,37.78
2019-03-30T01:40:16.380Z,41.73
2019-03-30T01:42:44.812Z,43.13
2019-03-30T01:45:13.266Z,37.67
2019-03-30T01:47:41.709Z,34.55
2019-03-30T01:50:17.041Z,37.45
2019-03-30T01:52:40.654Z,40.50
2019-03-30T01:55:10.380Z,39.80
2019-03-30T01:57:38.856Z,37.30
2019-03-30T02:00:08.065Z,35.75
2019-03-30T02:02:36.504Z,40.08
2019-03-30T02:05:06.309Z,34.30
2019-03-30T02:07:34.749Z,44.88
2019-03-30T02:10:03.653Z,33.05
2019-03-30T02:12:32.081Z,33.78
2019-03-30T02:15:00.526Z,31.50
2019-03-30T02:17:28.969Z,36.42
2019-03-30T02:19:57.401Z,33.90
2019-03-30T02:22:25.921Z,31.65
2019-03-30T02:24:54.433Z,29.90
2019-03-30T02:27:22.928Z,33.25
2019-03-30T02:29:51.364Z,31.25
2019-03-30T02:32:19.808Z,31.45
2019-03-30T02:34:48.257Z,30.62
2019-03-30T02:37:16.701Z,29.12
2019-03-30T02:39:45.399Z,29.30
2019-03-30T02:42:13.840Z,33.02
2019-03-30T02:44:42.270Z,28.75
2019-03-30T02:47:10.729Z,29.20
2019-03-30T02:49:39.151Z,29.63
2019-03-30T02:52:07.600Z,27.17
2019-03-30T02:54:36.037Z,31.10
2019-03-30T02:57:04.476Z,29.57
2019-03-30T02:59:32.919Z,27.07
2019-03-30T03:02:01.365Z,29.35
2019-03-30T03:04:29.862Z,29.07
2019-03-30T03:06:58.321Z,28.27
2019-03-30T03:09:26.741Z,30.72
2019-03-30T03:11:55.183Z,28.52
2019-03-30T03:14:23.608Z,28.92
2019-03-30T03:16:53.025Z,28.35
2019-03-30T03:19:21.472Z,27.65
2019-03-30T03:21:49.902Z,30.50
2019-03-30T03:24:18.349Z,27.62
2019-03-30T03:26:46.785Z,32.00
2019-03-30T03:29:15.247Z,29.75
2019-03-30T03:31:43.672Z,27.73
2019-03-30T03:34:12.110Z,26.90
2019-03-30T03:36:40.580Z,27.65
2019-03-30T03:39:09.834Z,30.15
2019-03-30T03:41:38.265Z,32.03
2019-03-30T03:44:06.712Z,29.27
2019-03-30T03:46:35.145Z,32.33
2019-03-30T03:49:04.989Z,29.63
2019-03-30T03:51:34.199Z,30.00
2019-03-30T03:54:02.926Z,28.98
2019-03-30T03:56:33.788Z,28.83
2019-03-30T03:59:02.503Z,29.25
2019-03-30T04:01:32.472Z,29.60
2019-03-30T04:04:02.951Z,32.13
2019-03-30T04:06:32.467Z,31.05
2019-03-30T04:09:04.015Z,30.45
2019-03-30T04:11:32.694Z,27.70
2019-03-30T04:14:03.534Z,28.42
2019-03-30T04:16:31.978Z,28.52
2019-03-30T04:19:00.406Z,32.08
2019-03-30T04:21:42.880Z,27.30
2019-03-30T04:24:00.315Z,28.42
2019-03-30T04:26:30.031Z,30.55
2019-03-30T04:28:58.811Z,28.40
2019-03-30T04:31:27.265Z,28.75
2019-03-30T04:33:55.701Z,30.43
2019-03-30T04:36:24.146Z,33.05
2019-03-30T04:38:52.693Z,27.20
2019-03-30T04:41:21.088Z,32.88
2019-03-30T04:43:49.534Z,29.40
2019-03-30T04:46:18.074Z,29.60
2019-03-30T04:48:46.504Z,29.32
2019-03-30T04:51:14.949Z,29.57
2019-03-30T04:53:43.380Z,30.70
2019-03-30T04:56:11.829Z,28.25
2019-03-30T04:58:40.273Z,31.42
2019-03-30T05:01:08.707Z,29.18
2019-03-30T05:03:37.148Z,30.30
2019-03-30T05:06:05.592Z,26.55
2019-03-30T05:08:34.025Z,30.72
2019-03-30T05:11:02.736Z,24.82
2019-03-30T05:13:31.181Z,28.07
2019-03-30T05:15:59.616Z,27.00
2019-03-30T05:18:28.070Z,28.17
2019-03-30T05:20:56.511Z,31.48
2019-03-30T05:23:24.953Z,25.37
2019-03-30T05:25:53.388Z,31.12
2019-03-30T05:28:21.825Z,28.60
2019-03-30T05:30:50.266Z,23.30
2019-03-30T05:33:18.702Z,23.83
2019-03-30T05:35:47.141Z,24.65
2019-03-30T05:38:16.777Z,24.87
2019-03-30T05:40:45.217Z,28.17
2019-03-30T05:43:13.657Z,21.73
2019-03-30T05:45:42.090Z,26.15
2019-03-30T05:48:10.533Z,30.30
2019-03-30T05:50:38.986Z,28.02
2019-03-30T05:53:07.423Z,30.12
2019-03-30T05:55:35.856Z,25.05
2019-03-30T05:58:04.294Z,24.35
2019-03-30T06:00:32.738Z,26.48
2019-03-30T06:03:01.180Z,25.82
2019-03-30T06:05:29.613Z,24.07
2019-03-30T06:07:58.053Z,26.30
2019-03-30T06:10:26.801Z,29.37
2019-03-30T06:12:55.242Z,25.45
2019-03-30T06:15:23.677Z,24.23
2019-03-30T06:17:52.124Z,27.22
2019-03-30T06:20:20.556Z,24.80
2019-03-30T06:22:48.981Z,29.52
2019-03-30T06:25:17.419Z,27.67
2019-03-30T06:27:45.852Z,28.92
2019-03-30T06:30:18.754Z,26.62
2019-03-30T06:32:47.193Z,28.25
2019-03-30T06:35:15.630Z,25.70
2019-03-30T06:37:45.705Z,28.00
2019-03-30T06:40:14.917Z,31.33
2019-03-30T06:42:43.346Z,30.55
2019-03-30T06:45:11.855Z,29.55
2019-03-30T06:47:40.289Z,29.00
2019-03-30T06:50:09.086Z,26.73
2019-03-30T06:52:37.526Z,28.55
2019-03-30T06:55:07.650Z,29.15
2019-03-30T06:57:36.103Z,27.13
2019-03-30T07:00:05.987Z,30.15
2019-03-30T07:02:34.697Z,29.52
2019-03-30T07:05:03.288Z,31.60
2019-03-30T07:07:32.701Z,29.20
2019-03-30T07:10:02.739Z,31.23
2019-03-30T07:12:32.717Z,28.23
2019-03-30T07:15:02.360Z,27.13
2019-03-30T07:17:32.028Z,27.80
2019-03-30T07:20:02.209Z,26.68
2019-03-30T07:22:30.649Z,30.55
2019-03-30T07:24:59.091Z,31.50
2019-03-30T07:27:27.516Z,28.67
2019-03-30T07:29:55.966Z,28.83
2019-03-30T07:32:24.401Z,25.88
2019-03-30T07:34:54.105Z,25.25
2019-03-30T07:37:22.548Z,26.75
2019-03-30T07:39:50.981Z,27.22
2019-03-30T07:42:19.427Z,25.72
2019-03-30T07:44:47.866Z,29.12
2019-03-30T07:47:16.302Z,27.42
2019-03-30T07:49:44.749Z,27.10
2019-03-30T07:52:13.202Z,24.95
2019-03-30T07:54:41.639Z,27.10
2019-03-30T07:57:16.788Z,28.57
2019-03-30T07:59:40.581Z,35.40
2019-03-30T08:02:09.036Z,24.52
2019-03-30T08:04:37.472Z,28.70
2019-03-30T08:07:06.985Z,29.75
2019-03-30T08:09:37.147Z,26.45
2019-03-30T08:14:35.429Z,23.60
2019-03-30T08:17:03.852Z,30.45
2019-03-30T08:19:32.303Z,30.15
2019-03-30T08:22:00.749Z,27.32
2019-03-30T08:24:29.920Z,31.87
2019-03-30T08:26:58.368Z,24.67
2019-03-30T08:29:26.804Z,24.72
2019-03-30T08:31:55.258Z,30.05
2019-03-30T08:34:23.692Z,29.92
2019-03-30T08:36:52.125Z,27.35
2019-03-30T08:39:20.606Z,31.23
2019-03-30T08:41:49.040Z,25.92
2019-03-30T08:44:17.476Z,23.80
2019-03-30T08:46:45.921Z,28.98
2019-03-30T08:49:14.365Z,24.12
2019-03-30T08:51:42.821Z,28.90
2019-03-30T08:54:11.266Z,29.72
2019-03-30T08:56:39.771Z,24.40
2019-03-30T08:59:08.221Z,26.82
2019-03-30T09:01:36.668Z,29.77
2019-03-30T09:04:05.113Z,29.85
2019-03-30T09:06:33.569Z,27.30
2019-03-30T09:09:02.017Z,28.20
2019-03-30T09:11:32.330Z,27.87
2019-03-30T09:14:00.781Z,26.33
2019-03-30T09:16:29.520Z,37.23
2019-03-30T09:18:57.970Z,31.15
2019-03-30T09:21:26.405Z,28.50
2019-03-30T09:24:08.439Z,33.70
2019-03-30T09:26:24.978Z,24.25
2019-03-30T09:28:53.429Z,25.37
2019-03-30T09:31:21.864Z,28.85
2019-03-30T09:33:50.305Z,31.82
2019-03-30T09:36:18.755Z,22.93
2019-03-30T09:38:47.179Z,32.20
2019-03-30T09:41:15.621Z,27.32
2019-03-30T09:43:44.060Z,32.58
2019-03-30T09:46:12.506Z,27.37
2019-03-30T09:48:42.105Z,29.25
2019-03-30T09:51:11.810Z,24.70
2019-03-30T09:53:40.247Z,27.35
2019-03-30T09:56:08.714Z,30.65
2019-03-30T09:58:37.204Z,28.27
2019-03-30T10:01:05.653Z,24.65
2019-03-30T10:03:35.447Z,35.13
2019-03-30T10:06:03.881Z,29.60
2019-03-30T10:08:32.320Z,26.50
2019-03-30T10:11:00.752Z,28.02
2019-03-30T10:13:29.231Z,28.32
2019-03-30T10:15:57.669Z,30.40
2019-03-30T10:18:26.117Z,33.38
2019-03-30T10:20:54.575Z,32.65
2019-03-30T10:23:23.007Z,28.95
2019-03-30T10:25:51.793Z,29.98
2019-03-30T10:28:20.234Z,29.05
2019-03-30T10:30:48.678Z,27.07
2019-03-30T10:33:17.128Z,31.30
2019-03-30T10:35:45.581Z,33.60
2019-03-30T10:38:14.017Z,30.62
2019-03-30T10:40:43.630Z,31.57
2019-03-30T10:43:12.079Z,35.03
2019-03-30T10:45:40.517Z,29.00
2019-03-30T10:48:08.968Z,31.70
2019-03-30T10:50:37.417Z,27.17
2019-03-30T10:53:07.031Z,33.35
2019-03-30T10:55:35.474Z,27.70
2019-03-30T10:58:03.929Z,30.90
2019-03-30T11:00:36.562Z,34.23
2019-03-30T11:03:05.006Z,30.75
2019-03-30T11:05:33.445Z,24.07
2019-03-30T11:08:01.890Z,31.62
2019-03-30T11:10:30.326Z,29.30
2019-03-30T11:12:58.850Z,37.53
2019-03-30T11:15:27.309Z,28.67
2019-03-30T11:17:55.761Z,31.82
2019-03-30T11:20:24.194Z,28.17
2019-03-30T11:22:52.642Z,30.57
2019-03-30T11:25:21.089Z,31.73
2019-03-30T11:27:49.583Z,24.98
2019-03-30T11:30:18.069Z,34.35
2019-03-30T11:32:46.513Z,30.55
2019-03-30T11:35:14.974Z,30.57
2019-03-30T11:37:43.404Z,29.05
2019-03-30T11:40:11.853Z,27.17
2019-03-30T11:42:40.284Z,27.17
2019-03-30T11:45:08.722Z,29.57
2019-03-30T11:47:37.161Z,30.17
2019-03-30T11:50:06.276Z,32.83
2019-03-30T11:52:34.709Z,27.42
2019-03-30T11:55:04.021Z,32.98
2019-03-30T11:57:33.423Z,25.88
2019-03-30T12:00:01.881Z,28.73
2019-03-30T12:02:30.497Z,27.95
2019-03-30T12:04:58.936Z,28.85
2019-03-30T12:07:27.605Z,28.80
2019-03-30T12:09:56.041Z,25.30
2019-03-30T12:12:24.485Z,22.90
2019-03-30T12:14:52.932Z,25.68
2019-03-30T12:17:21.686Z,26.33
2019-03-30T12:19:50.126Z,31.75
2019-03-30T12:22:18.561Z,30.57
2019-03-30T12:24:48.053Z,28.55
2019-03-30T12:27:16.492Z,25.72
2019-03-30T12:29:44.934Z,29.37
2019-03-30T12:32:13.380Z,20.15
2019-03-30T12:34:42.158Z,25.82
2019-03-30T12:37:10.589Z,25.23
2019-03-30T12:39:39.051Z,28.85
2019-03-30T12:42:07.517Z,23.70
2019-03-30T12:44:35.997Z,26.33
2019-03-30T12:47:04.447Z,24.72
2019-03-30T12:49:32.884Z,23.90
2019-03-30T12:52:01.315Z,27.02
2019-03-30T12:54:29.765Z,23.95
2019-03-30T12:56:58.210Z,24.80
2019-03-30T12:59:26.668Z,35.80
2019-03-30T13:01:55.097Z,30.82
2019-03-30T13:04:23.541Z,27.25
2019-03-30T13:06:51.976Z,34.50
2019-03-30T13:09:20.416Z,28.17
2019-03-30T13:11:48.987Z,29.82
2019-03-30T13:14:17.384Z,31.25
2019-03-30T13:16:45.913Z,27.82
2019-03-30T13:19:14.356Z,29.25
2019-03-30T13:21:52.663Z,30.20
2019-03-30T13:24:15.705Z,31.77
2019-03-30T13:26:44.142Z,26.68
2019-03-30T13:29:12.657Z,30.65
2019-03-30T13:31:41.089Z,29.80
2019-03-30T13:34:09.530Z,30.68
2019-03-30T13:36:39.597Z,30.32
2019-03-30T13:39:08.209Z,28.85
2019-03-30T13:41:36.716Z,30.15
2019-03-30T13:44:05.928Z,29.70
2019-03-30T13:46:34.372Z,29.50
2019-03-30T13:49:02.809Z,25.70
2019-03-30T13:51:31.321Z,32.10
2019-03-30T13:53:59.763Z,25.88
2019-03-30T13:56:28.264Z,29.15
2019-03-30T13:58:56.705Z,27.60
2019-03-30T14:01:25.146Z,23.80
2019-03-30T14:03:53.606Z,26.55
2019-03-30T14:06:22.378Z,25.23
2019-03-30T14:08:50.821Z,23.20
2019-03-30T14:11:19.342Z,28.57
2019-03-30T14:13:47.785Z,23.87
2019-03-30T14:16:17.390Z,30.72
2019-03-30T14:18:45.818Z,25.57
2019-03-30T14:21:14.269Z,25.23
2019-03-30T14:23:43.640Z,25.82
2019-03-30T14:26:12.529Z,25.27
2019-03-30T14:28:42.032Z,21.55
2019-03-30T14:31:10.468Z,25.02
2019-03-30T14:33:38.915Z,27.87
2019-03-30T14:36:07.338Z,23.60
2019-03-30T14:38:35.799Z,22.90
2019-03-30T14:41:04.239Z,29.55
2019-03-30T14:43:32.670Z,26.15
2019-03-30T14:46:02.666Z,23.85
2019-03-30T14:48:31.101Z,34.45
2019-03-30T14:50:59.545Z,23.75
2019-03-30T14:53:27.991Z,29.05
2019-03-30T14:55:56.423Z,32.08
2019-03-30T14:58:24.860Z,25.40
2019-03-30T15:00:53.313Z,27.30
2019-03-30T15:03:21.754Z,28.77
2019-03-30T15:05:50.192Z,28.60
2019-03-30T15:08:18.635Z,23.92
2019-03-30T15:10:47.074Z,27.67
2019-03-30T15:13:15.517Z,24.92
2019-03-30T15:15:43.963Z,25.92
2019-03-30T15:18:12.401Z,26.82
2019-03-30T15:20:40.837Z,31.00
2019-03-30T15:23:09.548Z,26.00
2019-03-30T15:25:38.061Z,29.98
2019-03-30T15:28:06.509Z,30.20
2019-03-30T15:30:34.954Z,31.25
2019-03-30T15:33:03.651Z,30.17
2019-03-30T15:35:32.307Z,32.03
2019-03-30T15:38:00.758Z,32.73
2019-03-30T15:40:29.194Z,30.48
2019-03-30T15:42:59.172Z,34.95
2019-03-30T15:45:27.625Z,34.88
2019-03-30T15:47:56.063Z,38.23
2019-03-30T15:50:24.572Z,35.78
2019-03-30T15:52:53.019Z,38.85
2019-03-30T15:55:21.457Z,35.15
2019-03-30T15:57:49.899Z,34.78
2019-03-30T16:00:19.089Z,29.82
2019-03-30T16:02:47.513Z,31.68
2019-03-30T16:05:16.345Z,31.52
2019-03-30T16:07:44.843Z,28.62
2019-03-30T16:10:13.366Z,29.72
2019-03-30T16:12:41.805Z,30.43
2019-03-30T16:15:10.425Z,30.23
2019-03-30T16:17:38.867Z,34.67
2019-03-30T16:20:07.304Z,34.23
2019-03-30T16:22:35.739Z,32.73
2019-03-30T16:25:05.535Z,32.78
2019-03-30T16:27:33.988Z,30.02
2019-03-30T16:30:02.486Z,35.92
2019-03-30T16:32:30.930Z,36.90
2019-03-30T16:34:59.362Z,38.53
2019-03-30T16:37:27.804Z,32.42
2019-03-30T16:39:56.253Z,34.55
2019-03-30T16:42:24.690Z,38.15
2019-03-30T16:44:53.122Z,50.20
2019-03-30T16:47:21.570Z,51.35
2019-03-30T16:49:50.024Z,46.35
2019-03-30T16:52:18.452Z,50.28
2019-03-30T16:54:46.898Z,48.13
2019-03-30T16:57:15.332Z,49.65
2019-03-30T16:59:43.790Z,49.03
2019-03-30T17:02:12.217Z,49.93
2019-03-30T17:04:40.665Z,50.45
2019-03-30T17:07:09.111Z,52.30
2019-03-30T17:09:37.562Z,49.38
2019-03-30T17:12:06.030Z,51.65
2019-03-30T17:14:34.473Z,48.25
2019-03-30T17:17:03.062Z,49.23
2019-03-30T17:19:31.508Z,47.95
2019-03-30T17:22:01.008Z,49.10
2019-03-30T17:24:29.523Z,51.20
2019-03-30T17:26:57.958Z,53.38
2019-03-30T17:29:26.474Z,51.18
2019-03-30T17:31:55.790Z,48.68
2019-03-30T17:34:24.250Z,54.00
2019-03-30T17:36:52.689Z,53.87
2019-03-30T17:39:21.128Z,53.70
2019-03-30T17:41:49.576Z,50.00
2019-03-30T17:44:18.008Z,53.30
2019-03-30T17:46:46.455Z,55.92
2019-03-30T17:49:14.901Z,52.93
2019-03-30T17:51:43.337Z,51.88
2019-03-30T17:54:11.797Z,54.95
2019-03-30T17:56:40.241Z,52.50
2019-03-30T17:59:08.689Z,50.65
2019-03-30T18:01:37.141Z,57.75
2019-03-30T18:04:05.647Z,50.40
2019-03-30T18:06:34.077Z,48.65
2019-03-30T18:09:02.515Z,51.58
2019-03-30T18:11:32.581Z,49.65
2019-03-30T18:14:01.037Z,49.20
2019-03-30T18:16:29.477Z,47.75
2019-03-30T18:18:57.925Z,51.60
2019-03-30T18:21:26.352Z,47.45
2019-03-30T18:23:54.872Z,50.20
2019-03-30T18:26:23.309Z,46.60
2019-03-30T18:28:51.750Z,49.45
2019-03-30T18:31:20.474Z,46.42
2019-03-30T18:33:49.875Z,45.73
2019-03-30T18:36:18.578Z,47.58
2019-03-30T18:38:47.752Z,48.45
2019-03-30T18:41:16.263Z,49.58
2019-03-30T18:43:44.783Z,53.70
2019-03-30T18:46:13.216Z,50.50
2019-03-30T18:48:41.652Z,53.35
2019-03-30T18:51:10.139Z,59.58
2019-03-30T18:53:38.754Z,70.95
2019-03-30T18:56:07.205Z,56.30
2019-03-30T18:58:41.913Z,59.63
2019-03-30T19:01:06.059Z,47.97
2019-03-30T19:03:34.506Z,49.93
2019-03-30T19:06:03.233Z,51.40
2019-03-30T19:08:34.470Z,48.23
2019-03-30T19:11:01.894Z,55.55
2019-03-30T19:13:30.398Z,50.80
2019-03-30T19:15:58.849Z,55.28
2019-03-30T19:18:27.285Z,55.15
2019-03-30T19:20:55.738Z,51.48
2019-03-30T19:23:24.171Z,50.45
2019-03-30T19:25:52.609Z,53.25
2019-03-30T19:28:21.061Z,57.83
2019-03-30T19:30:49.484Z,50.55
2019-03-30T19:33:17.931Z,53.73
2019-03-30T19:35:46.455Z,53.52
2019-03-30T19:38:14.895Z,52.27
2019-03-30T19:40:43.348Z,50.88
2019-03-30T19:43:11.780Z,58.60
2019-03-30T19:45:40.285Z,58.40
2019-03-30T19:48:10.124Z,60.12
2019-03-30T19:50:38.561Z,55.70
2019-03-30T19:53:07.002Z,51.75
2019-03-30T19:55:36.793Z,53.15
2019-03-30T19:58:05.234Z,53.17
2019-03-30T20:00:33.685Z,47.05
2019-03-30T20:03:02.122Z,49.13
2019-03-30T20:05:30.626Z,59.95
2019-03-30T20:08:11.424Z,50.85
2019-03-30T20:10:29.202Z,50.58
2019-03-30T20:12:57.630Z,53.68
2019-03-30T20:15:26.068Z,54.05
2019-03-30T20:17:54.501Z,51.63
2019-03-30T20:20:23.004Z,53.30
2019-03-30T20:22:51.457Z,51.50
2019-03-30T20:25:19.891Z,52.93
2019-03-30T20:27:48.320Z,51.85
2019-03-30T20:30:17.028Z,62.60
2019-03-30T20:32:45.528Z,59.23
2019-03-30T20:35:14.033Z,59.45
2019-03-30T20:37:42.472Z,62.30
2019-03-30T20:40:10.981Z,66.77
2019-03-30T20:42:39.429Z,69.50
2019-03-30T20:45:08.541Z,63.60
2019-03-30T20:47:36.994Z,61.60
2019-03-30T20:50:06.228Z,67.45
2019-03-30T20:52:34.682Z,68.75
2019-03-30T20:55:03.886Z,70.50
2019-03-30T20:57:32.333Z,64.10
2019-03-30T21:00:00.772Z,59.83
2019-03-30T21:02:29.297Z,62.00
2019-03-30T21:04:57.769Z,63.00
2019-03-30T21:07:26.221Z,66.70
2019-03-30T21:09:54.653Z,67.32
2019-03-30T21:12:23.093Z,63.13
2019-03-30T21:14:51.610Z,64.45
2019-03-30T21:17:20.057Z,58.78
2019-03-30T21:19:48.497Z,66.90
2019-03-30T21:22:16.945Z,61.48
2019-03-30T21:24:45.677Z,60.95
2019-03-30T21:27:14.116Z,69.67
2019-03-30T21:29:53.941Z,61.48
2019-03-30T21:32:12.696Z,61.60
2019-03-30T21:34:41.228Z,65.45
2019-03-30T21:37:09.669Z,64.72
2019-03-30T21:39:39.748Z,65.65
2019-03-30T21:42:09.000Z,63.70
2019-03-30T21:44:37.442Z,68.92
2019-03-30T21:47:05.877Z,73.15
2019-03-30T21:49:34.322Z,70.85
2019-03-30T21:52:02.766Z,73.67
2019-03-30T21:54:31.206Z,67.22
2019-03-30T21:56:59.650Z,61.85
2019-03-30T21:59:28.099Z,63.28
2019-03-30T22:01:56.528Z,62.65
2019-03-30T22:04:24.967Z,64.45
2019-03-30T22:06:53.473Z,70.60
2019-03-30T22:09:21.985Z,68.37
2019-03-30T22:11:50.424Z,64.40
2019-03-30T22:14:18.865Z,65.05
2019-03-30T22:16:48.371Z,66.15
2019-03-30T22:19:18.969Z,62.78
2019-03-30T22:21:48.066Z,66.03
2019-03-30T22:24:16.525Z,55.30
2019-03-30T22:26:45.063Z,57.60
2019-03-30T22:29:13.493Z,55.85
2019-03-30T22:31:41.933Z,61.18
2019-03-30T22:34:10.379Z,62.35
2019-03-30T22:36:38.822Z,61.28
2019-03-30T22:39:07.320Z,63.65
2019-03-30T22:41:37.356Z,59.58
2019-03-30T22:44:05.809Z,60.45
2019-03-30T22:46:34.249Z,68.22
2019-03-30T22:49:02.696Z,56.95
2019-03-30T22:51:31.142Z,62.27
2019-03-30T22:53:59.579Z,61.95
2019-03-30T22:56:28.017Z,64.45
2019-03-30T22:58:56.462Z,66.20
2019-03-30T23:01:25.674Z,63.52
2019-03-30T23:03:54.180Z,65.05
2019-03-30T23:06:22.622Z,69.42
2019-03-30T23:08:51.132Z,66.37
2019-03-30T23:11:19.568Z,63.08
2019-03-30T23:13:48.014Z,66.40
2019-03-30T23:16:16.453Z,67.50
2019-03-30T23:18:45.418Z,64.12
2019-03-30T23:21:16.600Z,69.65
2019-03-30T23:23:45.053Z,77.37
2019-03-30T23:26:13.493Z,67.70
2019-03-30T23:28:41.941Z,69.55
2019-03-30T23:31:10.378Z,68.60
2019-03-30T23:33:38.817Z,68.47
2019-03-30T23:36:07.244Z,71.90
2019-03-30T23:38:35.689Z,71.25
2019-03-30T23:41:04.131Z,67.12
2019-03-30T23:43:32.582Z,70.22
2019-03-30T23:46:01.016Z,62.53
2019-03-30T23:48:29.452Z,67.15
2019-03-30T23:50:57.884Z,66.95
2019-03-30T23:53:26.329Z,72.75
2019-03-30T23:55:54.773Z,64.92
2019-03-30T23:58:23.209Z,72.47
